sensor_id;sensor_type;location;lat;lon;timestamp;pressure;altitude;pressure_sealevel;temperature;humidity
62725;BME280;49026;52.600;4.694;2023-03-29T00:01:20;101551.88;;;5.00;80.60
62725;BME280;49026;52.600;4.694;2023-03-29T00:03:49;101551.84;;;5.03;79.84
62725;BME280;49026;52.600;4.694;2023-03-29T00:06:16;101552.72;;;5.05;78.86
62725;BME280;49026;52.600;4.694;2023-03-29T00:08:47;101544.91;;;5.05;79.03
62725;BME280;49026;52.600;4.694;2023-03-29T00:11:19;101549.19;;;5.08;80.10
62725;BME280;49026;52.600;4.694;2023-03-29T00:13:47;101550.94;;;5.09;80.27
62725;BME280;49026;52.600;4.694;2023-03-29T00:16:12;101544.88;;;5.11;79.04
62725;BME280;49026;52.600;4.694;2023-03-29T00:18:38;101532.69;;;5.13;78.74
62725;BME280;49026;52.600;4.694;2023-03-29T00:21:04;101522.25;;;5.15;79.30
62725;BME280;49026;52.600;4.694;2023-03-29T00:23:29;101525.69;;;5.18;79.10
62725;BME280;49026;52.600;4.694;2023-03-29T00:25:55;101525.69;;;5.23;79.13
62725;BME280;49026;52.600;4.694;2023-03-29T00:28:23;101524.78;;;5.27;78.17
62725;BME280;49026;52.600;4.694;2023-03-29T00:30:49;101514.31;;;5.32;78.18
62725;BME280;49026;52.600;4.694;2023-03-29T00:33:18;101516.03;;;5.34;78.14
62725;BME280;49026;52.600;4.694;2023-03-29T00:35:47;101503.84;;;5.38;77.72
62725;BME280;49026;52.600;4.694;2023-03-29T00:38:15;101503.84;;;5.38;78.59
62725;BME280;49026;52.600;4.694;2023-03-29T00:40:42;101506.41;;;5.41;78.32
62725;BME280;49026;52.600;4.694;2023-03-29T00:43:12;101497.72;;;5.44;77.55
62725;BME280;49026;52.600;4.694;2023-03-29T00:45:38;101502.00;;;5.48;76.76
62725;BME280;49026;52.600;4.694;2023-03-29T00:48:11;101498.53;;;5.49;75.88
62725;BME280;49026;52.600;4.694;2023-03-29T00:50:56;101495.06;;;5.48;77.03
62725;BME280;49026;52.600;4.694;2023-03-29T00:53:37;101485.50;;;5.50;77.22
62725;BME280;49026;52.600;4.694;2023-03-29T00:56:13;101489.78;;;5.53;77.04
62725;BME280;49026;52.600;4.694;2023-03-29T00:59:04;101495.00;;;5.54;77.03
62725;BME280;49026;52.600;4.694;2023-03-29T01:01:47;101479.34;;;5.56;76.56
62725;BME280;49026;52.600;4.694;2023-03-29T01:04:19;101494.13;;;5.57;76.50
62725;BME280;49026;52.600;4.694;2023-03-29T01:06:55;101494.13;;;5.59;75.90
62725;BME280;49026;52.600;4.694;2023-03-29T01:09:24;101486.28;;;5.60;76.50
62725;BME280;49026;52.600;4.694;2023-03-29T01:11:56;101480.16;;;5.63;76.75
62725;BME280;49026;52.600;4.694;2023-03-29T01:15:01;101478.44;;;5.65;76.42
62725;BME280;49026;52.600;4.694;2023-03-29T01:17:32;101472.31;;;5.66;76.76
62725;BME280;49026;52.600;4.694;2023-03-29T01:20:02;101468.81;;;5.68;76.96
62725;BME280;49026;52.600;4.694;2023-03-29T01:28:21;101473.09;;;5.74;76.26
62725;BME280;49026;52.600;4.694;2023-03-29T01:31:11;101465.25;;;5.75;76.71
62725;BME280;49026;52.600;4.694;2023-03-29T01:33:47;101464.41;;;5.77;76.53
62725;BME280;49026;52.600;4.694;2023-03-29T01:39:09;101462.63;;;5.80;76.44
62725;BME280;49026;52.600;4.694;2023-03-29T01:44:05;101452.16;;;5.83;75.67
62725;BME280;49026;52.600;4.694;2023-03-29T01:46:51;101452.09;;;5.86;75.30
62725;BME280;49026;52.600;4.694;2023-03-29T01:49:21;101451.22;;;5.87;75.77
62725;BME280;49026;52.600;4.694;2023-03-29T01:51:52;101455.56;;;5.88;75.69
62725;BME280;49026;52.600;4.694;2023-03-29T01:54:26;101450.34;;;5.90;75.69
62725;BME280;49026;52.600;4.694;2023-03-29T01:56:54;101452.97;;;5.90;75.79
62725;BME280;49026;52.600;4.694;2023-03-29T01:59:25;101452.06;;;5.89;75.68
62725;BME280;49026;52.600;4.694;2023-03-29T02:01:57;101450.38;;;5.88;75.79
62725;BME280;49026;52.600;4.694;2023-03-29T02:04:29;101442.56;;;5.87;75.84
62725;BME280;49026;52.600;4.694;2023-03-29T02:06:57;101449.53;;;5.85;76.51
62725;BME280;49026;52.600;4.694;2023-03-29T02:09:25;101445.19;;;5.82;76.30
62725;BME280;49026;52.600;4.694;2023-03-29T02:11:57;101446.94;;;5.83;75.86
62725;BME280;49026;52.600;4.694;2023-03-29T02:14:24;101449.53;;;5.85;75.86
62725;BME280;49026;52.600;4.694;2023-03-29T02:16:52;101441.66;;;5.86;75.35
62725;BME280;49026;52.600;4.694;2023-03-29T02:19:18;101446.88;;;5.86;75.77
62725;BME280;49026;52.600;4.694;2023-03-29T02:21:49;101443.38;;;5.90;75.62
62725;BME280;49026;52.600;4.694;2023-03-29T02:24:19;101441.56;;;5.96;75.89
62725;BME280;49026;52.600;4.694;2023-03-29T02:26:45;101427.69;;;5.98;76.05
62725;BME280;49026;52.600;4.694;2023-03-29T02:29:14;101422.38;;;6.03;75.35
62725;BME280;49026;52.600;4.694;2023-03-29T02:31:50;101418.84;;;6.10;75.52
62725;BME280;49026;52.600;4.694;2023-03-29T02:34:23;101412.66;;;6.17;75.66
62725;BME280;49026;52.600;4.694;2023-03-29T02:36:55;101411.69;;;6.24;75.69
62725;BME280;49026;52.600;4.694;2023-03-29T02:39:25;101413.34;;;6.32;75.66
62725;BME280;49026;52.600;4.694;2023-03-29T02:41:52;101415.84;;;6.38;75.12
62725;BME280;49026;52.600;4.694;2023-03-29T02:44:29;101404.50;;;6.42;75.22
62725;BME280;49026;52.600;4.694;2023-03-29T02:46:59;101401.81;;;6.46;75.22
62725;BME280;49026;52.600;4.694;2023-03-29T02:49:26;101405.25;;;6.50;75.73
62725;BME280;49026;52.600;4.694;2023-03-29T02:51:53;101402.59;;;6.53;75.66
62725;BME280;49026;52.600;4.694;2023-03-29T02:54:24;101393.88;;;6.54;75.37
62725;BME280;49026;52.600;4.694;2023-03-29T02:56:59;101381.63;;;6.58;75.68
62725;BME280;49026;52.600;4.694;2023-03-29T02:59:27;101390.28;;;6.61;75.44
62725;BME280;49026;52.600;4.694;2023-03-29T03:01:54;101382.44;;;6.63;74.94
62725;BME280;49026;52.600;4.694;2023-03-29T03:04:19;101374.53;;;6.67;75.23
62725;BME280;49026;52.600;4.694;2023-03-29T03:06:46;101374.50;;;6.69;75.88
62725;BME280;49026;52.600;4.694;2023-03-29T03:09:11;101376.22;;;6.72;75.47
62725;BME280;49026;52.600;4.694;2023-03-29T03:11:36;101377.94;;;6.73;75.56
62725;BME280;49026;52.600;4.694;2023-03-29T03:14:02;101373.53;;;6.75;75.36
62725;BME280;49026;52.600;4.694;2023-03-29T03:16:28;101363.09;;;6.75;75.39
62725;BME280;49026;52.600;4.694;2023-03-29T03:18:53;101363.97;;;6.77;75.45
62725;BME280;49026;52.600;4.694;2023-03-29T03:21:20;101371.78;;;6.78;75.36
62725;BME280;49026;52.600;4.694;2023-03-29T03:23:46;101356.94;;;6.79;75.33
62725;BME280;49026;52.600;4.694;2023-03-29T03:26:13;101355.16;;;6.81;76.28
62725;BME280;49026;52.600;4.694;2023-03-29T03:28:40;101358.59;;;6.83;75.50
62725;BME280;49026;52.600;4.694;2023-03-29T03:31:06;101364.69;;;6.85;75.51
62725;BME280;49026;52.600;4.694;2023-03-29T03:33:32;101358.56;;;6.86;75.74
62725;BME280;49026;52.600;4.694;2023-03-29T03:35:58;101355.94;;;6.88;75.21
62725;BME280;49026;52.600;4.694;2023-03-29T03:38:32;101348.06;;;6.89;75.57
62725;BME280;49026;52.600;4.694;2023-03-29T03:40:58;101355.84;;;6.92;75.87
62725;BME280;49026;52.600;4.694;2023-03-29T03:43:25;101345.41;;;6.92;75.96
62725;BME280;49026;52.600;4.694;2023-03-29T03:45:56;101361.91;;;6.94;75.18
62725;BME280;49026;52.600;4.694;2023-03-29T03:48:23;101358.44;;;6.95;75.20
62725;BME280;49026;52.600;4.694;2023-03-29T03:50:51;101361.00;;;6.98;75.78
62725;BME280;49026;52.600;4.694;2023-03-29T03:53:17;101358.31;;;7.01;75.77
62725;BME280;49026;52.600;4.694;2023-03-29T03:55:53;101346.13;;;7.02;75.84
62725;BME280;49026;52.600;4.694;2023-03-29T03:58:21;101352.19;;;7.04;76.20
62725;BME280;49026;52.600;4.694;2023-03-29T04:00:48;101351.25;;;7.07;76.72
62725;BME280;49026;52.600;4.694;2023-03-29T04:03:14;101350.34;;;7.09;75.74
62725;BME280;49026;52.600;4.694;2023-03-29T04:05:43;101347.69;;;7.11;75.71
62725;BME280;49026;52.600;4.694;2023-03-29T04:08:10;101352.00;;;7.13;76.36
62725;BME280;49026;52.600;4.694;2023-03-29T04:10:39;101345.00;;;7.15;75.68
62725;BME280;49026;52.600;4.694;2023-03-29T04:13:05;101351.03;;;7.19;75.48
62725;BME280;49026;52.600;4.694;2023-03-29T04:15:37;101346.66;;;7.19;76.39
62725;BME280;49026;52.600;4.694;2023-03-29T04:18:03;101353.59;;;7.22;75.84
62725;BME280;49026;52.600;4.694;2023-03-29T04:20:32;101348.31;;;7.25;75.89
62725;BME280;49026;52.600;4.694;2023-03-29T04:22:57;101343.03;;;7.27;76.15
62725;BME280;49026;52.600;4.694;2023-03-29T04:25:23;101338.72;;;7.26;76.22
62725;BME280;49026;52.600;4.694;2023-03-29T04:27:51;101332.66;;;7.25;76.17
62725;BME280;49026;52.600;4.694;2023-03-29T04:30:20;101336.97;;;7.26;76.39
62725;BME280;49026;52.600;4.694;2023-03-29T04:32:46;101331.72;;;7.28;75.93
62725;BME280;49026;52.600;4.694;2023-03-29T04:35:11;101331.69;;;7.29;76.19
62725;BME280;49026;52.600;4.694;2023-03-29T04:37:37;101329.91;;;7.31;76.03
62725;BME280;49026;52.600;4.694;2023-03-29T04:40:05;101321.19;;;7.32;76.49
62725;BME280;49026;52.600;4.694;2023-03-29T04:42:36;101325.47;;;7.35;76.19
62725;BME280;49026;52.600;4.694;2023-03-29T04:45:02;101340.25;;;7.37;76.32
62725;BME280;49026;52.600;4.694;2023-03-29T04:47:27;101331.53;;;7.38;75.97
62725;BME280;49026;52.600;4.694;2023-03-29T04:49:54;101321.06;;;7.38;76.11
62725;BME280;49026;52.600;4.694;2023-03-29T04:52:21;101327.94;;;7.42;76.05
62725;BME280;49026;52.600;4.694;2023-03-29T04:54:49;101328.81;;;7.41;76.26
62725;BME280;49026;52.600;4.694;2023-03-29T04:57:14;101328.78;;;7.45;76.24
62725;BME280;49026;52.600;4.694;2023-03-29T04:59:41;101330.47;;;7.47;76.13
62725;BME280;49026;52.600;4.694;2023-03-29T05:02:09;101332.19;;;7.48;76.15
62725;BME280;49026;52.600;4.694;2023-03-29T05:04:38;101331.28;;;7.51;76.17
62725;BME280;49026;52.600;4.694;2023-03-29T05:07:04;101333.06;;;7.49;76.02
62725;BME280;49026;52.600;4.694;2023-03-29T05:09:30;101335.63;;;7.52;76.26
62725;BME280;49026;52.600;4.694;2023-03-29T05:11:56;101321.66;;;7.51;75.95
62725;BME280;49026;52.600;4.694;2023-03-29T05:14:22;101330.44;;;7.50;75.67
62725;BME280;49026;52.600;4.694;2023-03-29T05:16:50;101328.66;;;7.51;76.14
62725;BME280;49026;52.600;4.694;2023-03-29T05:19:16;101326.03;;;7.51;76.65
62725;BME280;49026;52.600;4.694;2023-03-29T05:21:42;101332.13;;;7.51;76.43
62725;BME280;49026;52.600;4.694;2023-03-29T05:24:08;101327.78;;;7.52;76.73
62725;BME280;49026;52.600;4.694;2023-03-29T05:26:35;101336.44;;;7.54;76.18
62725;BME280;49026;52.600;4.694;2023-03-29T05:29:01;101319.03;;;7.53;76.11
62725;BME280;49026;52.600;4.694;2023-03-29T05:31:27;101320.75;;;7.54;75.77
62725;BME280;49026;52.600;4.694;2023-03-29T05:33:53;101321.63;;;7.54;76.02
62725;BME280;49026;52.600;4.694;2023-03-29T05:36:19;101322.47;;;7.55;76.93
62725;BME280;49026;52.600;4.694;2023-03-29T05:38:45;101323.31;;;7.57;76.99
62725;BME280;49026;52.600;4.694;2023-03-29T05:41:11;101323.28;;;7.58;76.87
62725;BME280;49026;52.600;4.694;2023-03-29T05:43:37;101326.69;;;7.62;75.98
62725;BME280;49026;52.600;4.694;2023-03-29T05:46:03;101326.69;;;7.64;76.84
62725;BME280;49026;52.600;4.694;2023-03-29T05:48:30;101322.28;;;7.66;76.70
62725;BME280;49026;52.600;4.694;2023-03-29T05:50:56;101323.09;;;7.68;76.42
62725;BME280;49026;52.600;4.694;2023-03-29T05:53:24;101323.94;;;7.68;76.75
62725;BME280;49026;52.600;4.694;2023-03-29T05:55:59;101326.47;;;7.73;76.70
62725;BME280;49026;52.600;4.694;2023-03-29T05:58:27;101320.34;;;7.75;76.48
62725;BME280;49026;52.600;4.694;2023-03-29T06:00:53;101326.34;;;7.79;76.90
62725;BME280;49026;52.600;4.694;2023-03-29T06:03:31;101330.66;;;7.82;76.91
62725;BME280;49026;52.600;4.694;2023-03-29T06:06:06;101336.69;;;7.85;77.10
62725;BME280;49026;52.600;4.694;2023-03-29T06:08:33;101330.53;;;7.88;76.45
62725;BME280;49026;52.600;4.694;2023-03-29T06:11:04;101330.47;;;7.91;76.74
62725;BME280;49026;52.600;4.694;2023-03-29T06:13:33;101326.06;;;7.93;76.73
62725;BME280;49026;52.600;4.694;2023-03-29T06:16:00;101330.34;;;7.97;77.24
62725;BME280;49026;52.600;4.694;2023-03-29T06:18:26;101337.22;;;8.01;76.96
62725;BME280;49026;52.600;4.694;2023-03-29T06:20:52;101337.97;;;8.06;76.47
62725;BME280;49026;52.600;4.694;2023-03-29T06:23:21;101343.16;;;8.09;76.62
62725;BME280;49026;52.600;4.694;2023-03-29T06:25:50;101342.19;;;8.13;77.14
62725;BME280;49026;52.600;4.694;2023-03-29T06:28:21;101343.00;;;8.17;77.15
62725;BME280;49026;52.600;4.694;2023-03-29T06:30:58;101346.41;;;8.21;76.60
62725;BME280;49026;52.600;4.694;2023-03-29T06:33:27;101341.09;;;8.24;76.83
62725;BME280;49026;52.600;4.694;2023-03-29T06:35:56;101350.66;;;8.25;76.89
62725;BME280;49026;52.600;4.694;2023-03-29T06:38:25;101354.06;;;8.28;77.51
62725;BME280;49026;52.600;4.694;2023-03-29T06:40:59;101347.94;;;8.29;76.71
62725;BME280;49026;52.600;4.694;2023-03-29T06:43:31;101348.72;;;8.33;77.19
62725;BME280;49026;52.600;4.694;2023-03-29T06:45:57;101347.78;;;8.37;77.00
62725;BME280;49026;52.600;4.694;2023-03-29T06:48:23;101346.84;;;8.40;77.05
62725;BME280;49026;52.600;4.694;2023-03-29T06:50:50;101339.81;;;8.43;77.06
62725;BME280;49026;52.600;4.694;2023-03-29T06:53:17;101351.03;;;8.48;77.50
62725;BME280;49026;52.600;4.694;2023-03-29T06:55:43;101348.34;;;8.51;77.06
62725;BME280;49026;52.600;4.694;2023-03-29T06:58:13;101352.63;;;8.56;77.47
62725;BME280;49026;52.600;4.694;2023-03-29T07:00:44;101356.03;;;8.59;77.54
62725;BME280;49026;52.600;4.694;2023-03-29T07:03:12;101369.09;;;8.61;77.36
62725;BME280;49026;52.600;4.694;2023-03-29T07:05:47;101375.97;;;8.65;77.73
62725;BME280;49026;52.600;4.694;2023-03-29T07:08:24;101364.66;;;8.64;77.68
62725;BME280;49026;52.600;4.694;2023-03-29T07:10:57;101368.94;;;8.67;77.34
62725;BME280;49026;52.600;4.694;2023-03-29T07:13:25;101361.00;;;8.70;77.45
62725;BME280;49026;52.600;4.694;2023-03-29T07:15:51;101362.63;;;8.76;77.60
62725;BME280;49026;52.600;4.694;2023-03-29T07:18:25;101364.22;;;8.81;77.56
62725;BME280;49026;52.600;4.694;2023-03-29T07:21:00;101359.75;;;8.86;77.46
62725;BME280;49026;52.600;4.694;2023-03-29T07:23:35;101364.09;;;8.87;77.91
62725;BME280;49026;52.600;4.694;2023-03-29T07:26:04;101349.97;;;8.93;77.68
62725;BME280;49026;52.600;4.694;2023-03-29T07:28:32;101360.25;;;9.01;77.93
62725;BME280;49026;52.600;4.694;2023-03-29T07:31:09;101366.22;;;9.07;77.54
62725;BME280;49026;52.600;4.694;2023-03-29T07:33:36;101372.22;;;9.11;77.86
62725;BME280;49026;52.600;4.694;2023-03-29T07:36:06;101374.84;;;9.11;78.06
62725;BME280;49026;52.600;4.694;2023-03-29T07:38:32;101369.53;;;9.14;77.74
62725;BME280;49026;52.600;4.694;2023-03-29T07:41:01;101367.72;;;9.16;77.92
62725;BME280;49026;52.600;4.694;2023-03-29T07:43:30;101369.38;;;9.20;77.84
62725;BME280;49026;52.600;4.694;2023-03-29T07:46:00;101365.78;;;9.24;78.02
62725;BME280;49026;52.600;4.694;2023-03-29T07:48:26;101371.75;;;9.30;78.21
62725;BME280;49026;52.600;4.694;2023-03-29T07:50:51;101365.44;;;9.37;78.17
62725;BME280;49026;52.600;4.694;2023-03-29T07:53:17;101365.25;;;9.44;78.04
62725;BME280;49026;52.600;4.694;2023-03-29T07:55:42;101375.69;;;9.46;77.99
62725;BME280;49026;52.600;4.694;2023-03-29T07:58:12;101379.22;;;9.45;78.23
62725;BME280;49026;52.600;4.694;2023-03-29T08:00:38;101378.31;;;9.46;78.71
62725;BME280;49026;52.600;4.694;2023-03-29T08:03:04;101367.81;;;9.46;78.25
62725;BME280;49026;52.600;4.694;2023-03-29T08:05:30;101370.56;;;9.41;78.32
62725;BME280;49026;52.600;4.694;2023-03-29T08:07:55;101367.97;;;9.40;78.17
62725;BME280;49026;52.600;4.694;2023-03-29T08:10:21;101367.97;;;9.40;78.45
62725;BME280;49026;52.600;4.694;2023-03-29T08:12:48;101375.00;;;9.39;78.40
62725;BME280;49026;52.600;4.694;2023-03-29T08:15:15;101372.38;;;9.39;78.53
62725;BME280;49026;52.600;4.694;2023-03-29T08:17:41;101370.59;;;9.40;78.47
62725;BME280;49026;52.600;4.694;2023-03-29T08:20:09;101366.31;;;9.37;78.53
62725;BME280;49026;52.600;4.694;2023-03-29T08:22:36;101378.47;;;9.40;78.74
62725;BME280;49026;52.600;4.694;2023-03-29T08:25:05;101372.31;;;9.42;78.63
62725;BME280;49026;52.600;4.694;2023-03-29T08:27:32;101373.06;;;9.46;78.95
62725;BME280;49026;52.600;4.694;2023-03-29T08:29:58;101370.38;;;9.49;78.94
62725;BME280;49026;52.600;4.694;2023-03-29T08:32:23;101369.41;;;9.52;78.92
62725;BME280;49026;52.600;4.694;2023-03-29T08:34:49;101356.09;;;9.59;79.12
62725;BME280;49026;52.600;4.694;2023-03-29T08:37:15;101349.13;;;9.58;79.06
62725;BME280;49026;52.600;4.694;2023-03-29T08:39:44;101356.81;;;9.64;79.21
62725;BME280;49026;52.600;4.694;2023-03-29T08:42:23;101367.97;;;9.73;78.92
62725;BME280;49026;52.600;4.694;2023-03-29T08:50:49;101376.56;;;9.78;78.97
62725;BME280;49026;52.600;4.694;2023-03-29T08:53:28;101373.81;;;9.82;79.13
62725;BME280;49026;52.600;4.694;2023-03-29T08:56:08;101366.75;;;9.85;79.13
62725;BME280;49026;52.600;4.694;2023-03-29T08:58:36;101371.97;;;9.86;79.20
62725;BME280;49026;52.600;4.694;2023-03-29T09:01:08;101375.47;;;9.85;79.26
62725;BME280;49026;52.600;4.694;2023-03-29T09:03:46;101367.69;;;9.82;79.33
62725;BME280;49026;52.600;4.694;2023-03-29T09:06:13;101383.63;;;9.76;79.36
62725;BME280;49026;52.600;4.694;2023-03-29T09:08:46;101393.53;;;9.66;79.34
62725;BME280;49026;52.600;4.694;2023-03-29T09:11:39;101385.84;;;9.58;79.27
62725;BME280;49026;52.600;4.694;2023-03-29T09:17:14;101384.16;;;9.57;79.31
62725;BME280;49026;52.600;4.694;2023-03-29T09:22:42;101386.63;;;9.62;79.65
62725;BME280;49026;52.600;4.694;2023-03-29T09:25:22;101389.13;;;9.67;79.33
62725;BME280;49026;52.600;4.694;2023-03-29T09:28:18;101378.59;;;9.68;79.37
62725;BME280;49026;52.600;4.694;2023-03-29T09:31:02;101388.22;;;9.68;79.47
62725;BME280;49026;52.600;4.694;2023-03-29T09:33:36;101388.28;;;9.66;79.35
62725;BME280;49026;52.600;4.694;2023-03-29T09:36:52;101393.63;;;9.61;79.27
62725;BME280;49026;52.600;4.694;2023-03-29T09:39:21;101382.28;;;9.61;79.57
62725;BME280;49026;52.600;4.694;2023-03-29T09:42:03;101370.88;;;9.62;79.46
62725;BME280;49026;52.600;4.694;2023-03-29T09:44:59;101362.63;;;9.76;79.44
62725;BME280;49026;52.600;4.694;2023-03-29T09:47:34;101362.31;;;9.87;79.62
62725;BME280;49026;52.600;4.694;2023-03-29T09:50:36;101370.16;;;9.88;79.76
62725;BME280;49026;52.600;4.694;2023-03-29T09:53:02;101371.81;;;9.92;80.51
62725;BME280;49026;52.600;4.694;2023-03-29T09:55:30;101374.06;;;10.05;79.68
62725;BME280;49026;52.600;4.694;2023-03-29T09:57:59;101379.03;;;10.14;79.55
62725;BME280;49026;52.600;4.694;2023-03-29T10:00:25;101373.69;;;10.17;79.49
62725;BME280;49026;52.600;4.694;2023-03-29T10:02:52;101366.69;;;10.17;79.35
62725;BME280;49026;52.600;4.694;2023-03-29T10:05:18;101364.78;;;10.23;79.89
62725;BME280;49026;52.600;4.694;2023-03-29T10:07:46;101359.25;;;10.32;79.69
62725;BME280;49026;52.600;4.694;2023-03-29T10:10:28;101365.31;;;10.34;79.79
62725;BME280;49026;52.600;4.694;2023-03-29T10:12:59;101364.28;;;10.40;80.07
62725;BME280;49026;52.600;4.694;2023-03-29T10:15:28;101358.84;;;10.46;79.82
62725;BME280;49026;52.600;4.694;2023-03-29T10:18:04;101355.28;;;10.47;79.79
62725;BME280;49026;52.600;4.694;2023-03-29T10:20:38;101366.75;;;10.46;79.73
62725;BME280;49026;52.600;4.694;2023-03-29T10:23:06;101358.06;;;10.42;79.89
62725;BME280;49026;52.600;4.694;2023-03-29T10:25:37;101362.47;;;10.42;80.10
62725;BME280;49026;52.600;4.694;2023-03-29T10:28:16;101369.53;;;10.40;80.07
62725;BME280;49026;52.600;4.694;2023-03-29T10:30:44;101370.44;;;10.38;80.04
62725;BME280;49026;52.600;4.694;2023-03-29T10:33:15;101361.09;;;10.28;79.80
62725;BME280;49026;52.600;4.694;2023-03-29T10:35:43;101365.81;;;10.17;80.07
62725;BME280;49026;52.600;4.694;2023-03-29T10:38:11;101366.91;;;10.10;79.99
62725;BME280;49026;52.600;4.694;2023-03-29T10:40:48;101360.75;;;10.11;80.32
62725;BME280;49026;52.600;4.694;2023-03-29T10:43:25;101355.47;;;10.12;79.90
62725;BME280;49026;52.600;4.694;2023-03-29T10:45:53;101345.56;;;10.20;79.88
62725;BME280;49026;52.600;4.694;2023-03-29T10:48:27;101340.00;;;10.31;79.88
62725;BME280;49026;52.600;4.694;2023-03-29T10:50:57;101342.56;;;10.34;79.86
62725;BME280;49026;52.600;4.694;2023-03-29T10:53:27;101338.97;;;10.37;79.92
62725;BME280;49026;52.600;4.694;2023-03-29T11:17:57;101332.31;;;10.80;80.06
62725;BME280;49026;52.600;4.694;2023-03-29T11:20:39;101332.97;;;10.87;80.61
62725;BME280;49026;52.600;4.694;2023-03-29T11:23:31;101327.19;;;11.02;80.15
62725;BME280;49026;52.600;4.694;2023-03-29T11:29:21;101335.13;;;11.01;79.62
62725;BME280;49026;52.600;4.694;2023-03-29T11:31:59;101336.22;;;10.95;80.17
62725;BME280;49026;52.600;4.694;2023-03-29T11:34:53;101334.38;;;10.97;80.21
62725;BME280;49026;52.600;4.694;2023-03-29T11:37:27;101336.56;;;11.11;80.41
62725;BME280;49026;52.600;4.694;2023-03-29T11:42:32;101335.13;;;11.26;80.22
62725;BME280;49026;52.600;4.694;2023-03-29T11:45:01;101327.78;;;11.36;80.17
62725;BME280;49026;52.600;4.694;2023-03-29T11:47:30;101337.00;;;11.47;80.14
62725;BME280;49026;52.600;4.694;2023-03-29T11:49:58;101339.16;;;11.61;80.20
62725;BME280;49026;52.600;4.694;2023-03-29T11:52:48;101331.38;;;11.58;80.33
62725;BME280;49026;52.600;4.694;2023-03-29T11:55:24;101333.63;;;11.44;80.46
62725;BME280;49026;52.600;4.694;2023-03-29T11:57:55;101339.56;;;11.25;80.59
62725;BME280;49026;52.600;4.694;2023-03-29T12:03:03;101327.19;;;11.02;80.88
62725;BME280;49026;52.600;4.694;2023-03-29T12:05:35;101322.16;;;10.96;80.82
62725;BME280;49026;52.600;4.694;2023-03-29T12:08:07;101317.09;;;10.90;80.59
62725;BME280;49026;52.600;4.694;2023-03-29T12:10:37;101330.06;;;10.69;80.63
62725;BME280;49026;52.600;4.694;2023-03-29T12:13:26;101328.34;;;10.68;80.73
62725;BME280;49026;52.600;4.694;2023-03-29T12:18:30;101326.06;;;10.84;80.89
62725;BME280;49026;52.600;4.694;2023-03-29T12:20:58;101329.66;;;10.82;80.67
62725;BME280;49026;52.600;4.694;2023-03-29T12:23:28;101317.63;;;10.74;80.89
62725;BME280;49026;52.600;4.694;2023-03-29T12:28:57;101301.00;;;10.99;80.81
62725;BME280;49026;52.600;4.694;2023-03-29T12:37:46;101297.25;;;12.02;80.10
62725;BME280;49026;52.600;4.694;2023-03-29T12:40:16;101275.09;;;12.52;79.53
62725;BME280;49026;52.600;4.694;2023-03-29T12:43:15;101263.63;;;12.94;78.79
62725;BME280;49026;52.600;4.694;2023-03-29T12:45:45;101264.16;;;13.23;78.17
62725;BME280;49026;52.600;4.694;2023-03-29T12:48:17;101269.69;;;13.38;78.19
62725;BME280;49026;52.600;4.694;2023-03-29T12:53:34;101259.13;;;13.38;79.17
62725;BME280;49026;52.600;4.694;2023-03-29T13:01:19;101253.16;;;13.13;79.74
62725;BME280;49026;52.600;4.694;2023-03-29T13:03:55;101235.00;;;13.06;79.73
62725;BME280;49026;52.600;4.694;2023-03-29T13:11:56;101235.31;;;13.19;80.22
62725;BME280;49026;52.600;4.694;2023-03-29T13:14:31;101244.25;;;13.37;80.06
62725;BME280;49026;52.600;4.694;2023-03-29T13:17:05;101237.09;;;13.39;79.82
62725;BME280;49026;52.600;4.694;2023-03-29T13:23:12;101219.53;;;12.77;80.07
62725;BME280;49026;52.600;4.694;2023-03-29T13:28:08;101237.81;;;12.62;80.07
62725;BME280;49026;52.600;4.694;2023-03-29T13:36:14;101245.41;;;12.47;80.23
62725;BME280;49026;52.600;4.694;2023-03-29T13:38:45;101232.03;;;12.31;80.09
62725;BME280;49026;52.600;4.694;2023-03-29T13:41:32;101220.91;;;12.25;80.05
62725;BME280;49026;52.600;4.694;2023-03-29T13:44:27;101198.94;;;12.24;79.97
62725;BME280;49026;52.600;4.694;2023-03-29T13:50:04;101214.75;;;12.24;78.29
62725;BME280;49026;52.600;4.694;2023-03-29T13:52:40;101216.22;;;12.31;79.47
62725;BME280;49026;52.600;4.694;2023-03-29T13:55:28;101223.78;;;12.39;79.31
62725;BME280;49026;52.600;4.694;2023-03-29T14:00:42;101218.28;;;12.45;79.35
62725;BME280;49026;52.600;4.694;2023-03-29T14:03:13;101215.91;;;12.59;78.79
62725;BME280;49026;52.600;4.694;2023-03-29T14:05:42;101201.56;;;12.67;78.59
62725;BME280;49026;52.600;4.694;2023-03-29T14:08:35;101197.91;;;12.69;78.32
62725;BME280;49026;52.600;4.694;2023-03-29T14:11:07;101191.00;;;12.67;78.36
62725;BME280;49026;52.600;4.694;2023-03-29T14:13:39;101198.13;;;12.65;78.24
62725;BME280;49026;52.600;4.694;2023-03-29T14:16:09;101201.56;;;12.67;78.46
62725;BME280;49026;52.600;4.694;2023-03-29T14:18:41;101201.81;;;12.60;77.88
62725;BME280;49026;52.600;4.694;2023-03-29T14:21:10;101195.88;;;12.55;77.90
62725;BME280;49026;52.600;4.694;2023-03-29T14:23:36;101191.78;;;12.48;77.77
62725;BME280;49026;52.600;4.694;2023-03-29T14:26:22;101172.94;;;12.37;77.33
62725;BME280;49026;52.600;4.694;2023-03-29T14:28:50;101178.47;;;12.31;77.95
62725;BME280;49026;52.600;4.694;2023-03-29T14:33:58;101170.56;;;12.31;78.50
62725;BME280;49026;52.600;4.694;2023-03-29T14:36:25;101166.16;;;12.31;78.37
62725;BME280;49026;52.600;4.694;2023-03-29T14:38:55;101166.94;;;12.33;78.72
62725;BME280;49026;52.600;4.694;2023-03-29T14:41:22;101159.88;;;12.34;78.56
62725;BME280;49026;52.600;4.694;2023-03-29T14:43:48;101150.13;;;12.36;78.44
62725;BME280;49026;52.600;4.694;2023-03-29T14:46:17;101149.03;;;12.41;78.29
62725;BME280;49026;52.600;4.694;2023-03-29T14:48:47;101150.78;;;12.41;78.28
62725;BME280;49026;52.600;4.694;2023-03-29T14:51:13;101151.91;;;12.35;77.89
62725;BME280;49026;52.600;4.694;2023-03-29T14:53:39;101145.00;;;12.33;78.21
62725;BME280;49026;52.600;4.694;2023-03-29T14:56:09;101139.72;;;12.33;77.94